Terminal Aerodrome Forecast
Issued by NWS

Home | Current Version | Previous Version | Text Only | Print | Product List | Glossary On
Versions: 1 2 3 4 5 6 7 8 9 10 11 12 13
382
FTUS43 KAPX 310520
TAFMBL
TAF
KMBL 310520Z 3106/0106 VRB03KT P6SM SCT040 BKN080
     FM311400 09005KT P6SM VCSH BKN025 OVC100
     FM311900 01007KT P6SM VCSH BKN025 OVC100
     FM010000 VRB03KT P6SM BKN035=

USA.gov is the U.S. government's official web portal to all federal, state and local government web resources and services.